createdAt,value
2019-04-25T00:00:38.460Z,303.67
2019-04-25T00:01:38.379Z,305.87
2019-04-25T00:02:38.550Z,304.78
2019-04-25T00:03:38.368Z,306.35
2019-04-25T00:04:38.751Z,305.33
2019-04-25T00:05:38.755Z,304.96
2019-04-25T00:06:38.623Z,304.20
2019-04-25T00:07:38.736Z,304.07
2019-04-25T00:08:38.792Z,305.60
2019-04-25T00:09:38.950Z,304.89
2019-04-25T00:10:38.104Z,304.57
2019-04-25T00:11:38.088Z,304.94
2019-04-25T00:12:38.059Z,304.56
2019-04-25T00:13:38.101Z,304.95
2019-04-25T00:14:38.121Z,303.16
2019-04-25T00:15:38.295Z,303.74
2019-04-25T00:16:38.690Z,304.32
2019-04-25T00:17:38.607Z,304.97
2019-04-25T00:18:38.659Z,305.24
2019-04-25T00:19:38.703Z,304.97
2019-04-25T00:20:38.834Z,304.04
2019-04-25T00:21:38.240Z,307.68
2019-04-25T00:22:39.199Z,303.74
2019-04-25T00:23:39.385Z,303.34
2019-04-25T00:24:39.581Z,305.86
2019-04-25T00:25:37.952Z,306.77
2019-04-25T00:26:37.943Z,304.03
2019-04-25T00:27:37.890Z,305.91
2019-04-25T00:28:37.886Z,305.25
2019-04-25T00:29:37.893Z,303.44
2019-04-25T00:30:37.901Z,303.95
2019-04-25T00:31:37.835Z,304.05
2019-04-25T00:32:37.838Z,304.04
2019-04-25T00:33:37.844Z,303.41
2019-04-25T00:34:37.843Z,303.10
2019-04-25T00:35:37.831Z,304.80
2019-04-25T00:36:39.076Z,305.49
2019-04-25T00:37:37.808Z,303.95
2019-04-25T00:38:37.787Z,304.43
2019-04-25T00:39:37.810Z,304.17
2019-04-25T00:40:37.830Z,303.81
2019-04-25T00:41:37.797Z,303.90
2019-04-25T00:42:37.746Z,306.04
2019-04-25T00:43:37.727Z,304.10
2019-04-25T00:44:37.723Z,306.22
2019-04-25T00:45:37.703Z,306.62
2019-04-25T00:46:37.712Z,305.09
2019-04-25T00:47:37.714Z,306.79
2019-04-25T00:48:37.678Z,305.15
2019-04-25T00:49:37.663Z,305.21
2019-04-25T00:50:37.664Z,306.93
2019-04-25T00:51:37.637Z,304.18
2019-04-25T00:52:37.641Z,304.64
2019-04-25T00:53:37.626Z,306.61
2019-04-25T00:54:37.643Z,307.79
2019-04-25T00:55:37.627Z,305.66
2019-04-25T00:56:37.610Z,308.35
2019-04-25T00:57:37.610Z,305.41
2019-04-25T00:58:37.598Z,304.75
2019-04-25T00:59:37.563Z,304.42
2019-04-25T01:00:37.536Z,305.82
2019-04-25T01:01:37.537Z,304.71
2019-04-25T01:02:37.573Z,305.19
2019-04-25T01:03:37.512Z,305.83
2019-04-25T01:04:37.551Z,304.94
2019-04-25T01:05:37.526Z,305.65
2019-04-25T01:06:37.496Z,304.39
2019-04-25T01:07:37.517Z,304.52
2019-04-25T01:08:37.554Z,306.53
2019-04-25T01:09:37.452Z,305.16
2019-04-25T01:10:37.433Z,305.24
2019-04-25T01:11:37.531Z,304.47
2019-04-25T01:12:37.458Z,304.63
2019-04-25T01:13:37.467Z,305.08
2019-04-25T01:14:37.388Z,306.36
2019-04-25T01:15:37.405Z,306.89
2019-04-25T01:16:37.367Z,306.27
2019-04-25T01:17:37.403Z,305.76
2019-04-25T01:18:37.505Z,306.44
2019-04-25T01:19:37.385Z,307.43
2019-04-25T01:20:37.359Z,304.58
2019-04-25T01:21:37.354Z,304.82
2019-04-25T01:22:37.339Z,304.85
2019-04-25T01:23:37.317Z,308.95
2019-04-25T01:24:37.361Z,305.18
2019-04-25T01:25:40.898Z,306.22
2019-04-25T01:26:38.280Z,306.33
2019-04-25T01:27:37.350Z,306.23
2019-04-25T01:28:37.293Z,305.31
2019-04-25T01:29:37.262Z,305.29
2019-04-25T01:30:37.664Z,305.35
2019-04-25T01:31:37.272Z,305.84
2019-04-25T01:32:37.282Z,305.12
2019-04-25T01:33:37.231Z,305.47
2019-04-25T01:34:37.234Z,305.87
2019-04-25T01:35:37.266Z,304.72
2019-04-25T01:36:37.182Z,306.52
2019-04-25T01:37:37.157Z,305.28
2019-04-25T01:38:37.167Z,306.10
2019-04-25T01:39:37.128Z,304.97
2019-04-25T01:40:37.179Z,304.45
2019-04-25T01:41:37.136Z,305.19
2019-04-25T01:42:37.113Z,304.48
2019-04-25T01:43:37.128Z,304.58
2019-04-25T01:44:37.104Z,305.03
2019-04-25T01:45:37.079Z,304.75
2019-04-25T01:46:37.124Z,304.81
2019-04-25T01:47:37.072Z,305.54
2019-04-25T01:48:37.080Z,304.48
2019-04-25T01:49:37.027Z,304.15
2019-04-25T01:50:37.012Z,306.89
2019-04-25T01:51:37.037Z,305.69
2019-04-25T01:52:37.026Z,306.05
2019-04-25T01:53:37.005Z,305.03
2019-04-25T01:54:37.034Z,304.82
2019-04-25T01:55:37.530Z,306.42
2019-04-25T01:56:36.994Z,306.60
2019-04-25T01:57:36.996Z,305.16
2019-04-25T01:58:36.943Z,305.55
2019-04-25T01:59:36.913Z,305.33
2019-04-25T02:00:37.029Z,304.86
2019-04-25T02:01:36.930Z,304.97
2019-04-25T02:02:36.998Z,306.55
2019-04-25T02:03:36.935Z,305.92
2019-04-25T02:04:36.903Z,306.02
2019-04-25T02:05:36.885Z,306.57
2019-04-25T02:06:36.857Z,305.22
2019-04-25T02:07:36.904Z,305.67
2019-04-25T02:08:36.902Z,307.22
2019-04-25T02:09:36.901Z,306.60
2019-04-25T02:10:36.830Z,307.14
2019-04-25T02:11:36.804Z,306.91
2019-04-25T02:12:37.535Z,306.62
2019-04-25T02:13:36.794Z,305.72
2019-04-25T02:14:36.780Z,306.03
2019-04-25T02:15:36.766Z,306.40
2019-04-25T02:16:36.766Z,306.56
2019-04-25T02:17:36.745Z,306.44
2019-04-25T02:18:36.722Z,306.64
2019-04-25T02:19:36.771Z,305.75
2019-04-25T02:20:36.712Z,307.53
2019-04-25T02:21:36.723Z,306.82
2019-04-25T02:22:37.541Z,306.10
2019-04-25T02:23:36.696Z,307.49
2019-04-25T02:24:36.735Z,307.23
2019-04-25T02:25:36.654Z,306.46
2019-04-25T02:26:36.683Z,305.14
2019-04-25T02:27:36.674Z,306.13
2019-04-25T02:28:36.688Z,306.12
2019-04-25T02:29:36.617Z,305.58
2019-04-25T02:30:36.814Z,306.35
2019-04-25T02:31:36.717Z,306.40
2019-04-25T02:32:37.200Z,311.45
2019-04-25T02:33:36.705Z,307.69
2019-04-25T02:34:36.574Z,305.68
2019-04-25T02:35:36.547Z,307.07
2019-04-25T02:36:36.661Z,307.09
2019-04-25T02:37:36.577Z,305.38
2019-04-25T02:38:36.767Z,306.07
2019-04-25T02:39:37.376Z,305.00
2019-04-25T02:40:36.513Z,305.65
2019-04-25T02:41:36.487Z,305.82
2019-04-25T02:42:36.512Z,306.05
2019-04-25T02:43:36.491Z,306.01
2019-04-25T02:44:36.432Z,304.80
2019-04-25T02:45:36.428Z,305.83
2019-04-25T02:46:37.202Z,305.81
2019-04-25T02:47:36.423Z,305.76
2019-04-25T02:48:36.448Z,306.10
2019-04-25T02:49:39.423Z,308.71
2019-04-25T02:50:36.401Z,307.17
2019-04-25T02:51:36.427Z,304.07
2019-04-25T02:52:36.377Z,303.81
2019-04-25T02:53:37.380Z,305.46
2019-04-25T02:54:36.381Z,304.54
2019-04-25T02:55:37.649Z,306.55
2019-04-25T02:56:38.791Z,305.08
2019-04-25T02:57:36.336Z,305.08
2019-04-25T02:58:36.302Z,304.96
2019-04-25T02:59:37.033Z,306.17
2019-04-25T03:00:49.779Z,305.71
2019-04-25T03:01:37.261Z,304.37
2019-04-25T03:02:37.041Z,304.75
2019-04-25T03:03:36.247Z,306.41
2019-04-25T03:04:37.050Z,304.13
2019-04-25T03:05:36.241Z,306.07
2019-04-25T03:06:36.256Z,304.60
2019-04-25T03:07:36.206Z,304.04
2019-04-25T03:08:36.180Z,307.21
2019-04-25T03:09:36.272Z,305.58
2019-04-25T03:10:36.190Z,306.94
2019-04-25T03:11:36.214Z,304.99
2019-04-25T03:12:36.863Z,304.95
2019-04-25T03:13:36.163Z,305.55
2019-04-25T03:14:36.117Z,304.61
2019-04-25T03:15:36.482Z,305.80
2019-04-25T03:16:36.204Z,305.10
2019-04-25T03:17:36.195Z,305.32
2019-04-25T03:18:36.108Z,304.42
2019-04-25T03:19:36.056Z,304.29
2019-04-25T03:20:36.557Z,306.15
2019-04-25T03:21:36.100Z,303.47
2019-04-25T03:22:36.060Z,305.62
2019-04-25T03:23:36.038Z,306.94
2019-04-25T03:24:36.062Z,304.55
2019-04-25T03:25:36.039Z,305.90
2019-04-25T03:26:40.249Z,304.12
2019-04-25T03:27:36.036Z,305.92
2019-04-25T03:28:36.064Z,303.66
2019-04-25T03:29:35.973Z,305.48
2019-04-25T03:30:36.088Z,304.97
2019-04-25T03:31:36.047Z,303.43
2019-04-25T03:32:35.954Z,304.13
2019-04-25T03:33:38.434Z,309.28
2019-04-25T03:34:35.919Z,302.15
2019-04-25T03:35:35.949Z,305.10
2019-04-25T03:36:35.925Z,305.12
2019-04-25T03:37:35.882Z,304.09
2019-04-25T03:38:35.845Z,305.45
2019-04-25T03:39:35.848Z,303.38
2019-04-25T03:40:35.854Z,304.94
2019-04-25T03:41:35.835Z,305.34
2019-04-25T03:42:35.888Z,305.50
2019-04-25T03:43:35.805Z,304.36
2019-04-25T03:44:35.801Z,305.32
2019-04-25T03:45:35.860Z,305.30
2019-04-25T03:46:35.787Z,305.45
2019-04-25T03:47:35.786Z,305.24
2019-04-25T03:48:37.046Z,303.92
2019-04-25T03:49:35.737Z,306.15
2019-04-25T03:50:35.748Z,305.71
2019-04-25T03:51:35.721Z,304.59
2019-04-25T03:52:35.763Z,304.23
2019-04-25T03:53:35.707Z,307.09
2019-04-25T03:54:35.800Z,305.61
2019-04-25T03:55:35.921Z,303.56
2019-04-25T03:56:35.835Z,304.55
2019-04-25T03:57:35.697Z,305.44
2019-04-25T03:58:35.800Z,303.45
2019-04-25T03:59:35.680Z,304.65
2019-04-25T04:00:36.396Z,303.95
2019-04-25T04:01:35.663Z,306.00
2019-04-25T04:02:35.635Z,306.06
2019-04-25T04:03:36.733Z,305.04
2019-04-25T04:04:35.637Z,303.84
2019-04-25T04:05:36.372Z,304.60
2019-04-25T04:06:35.558Z,306.03
2019-04-25T04:07:35.667Z,304.45
2019-04-25T04:08:35.748Z,305.15
2019-04-25T04:09:35.576Z,304.19
2019-04-25T04:10:35.571Z,304.17
2019-04-25T04:11:35.529Z,304.62
2019-04-25T04:12:35.685Z,304.57
2019-04-25T04:13:35.505Z,304.59
2019-04-25T04:14:35.511Z,304.15
2019-04-25T04:15:35.478Z,302.94
2019-04-25T04:16:35.784Z,304.20
2019-04-25T04:17:35.482Z,304.30
2019-04-25T04:18:35.432Z,303.01
2019-04-25T04:19:35.426Z,304.65
2019-04-25T04:20:35.446Z,304.36
2019-04-25T04:21:35.440Z,303.65
2019-04-25T04:22:35.396Z,304.57
2019-04-25T04:23:35.425Z,305.87
2019-04-25T04:24:35.369Z,304.72
2019-04-25T04:25:35.356Z,304.54
2019-04-25T04:26:35.351Z,303.26
2019-04-25T04:27:35.580Z,305.59
2019-04-25T04:28:35.359Z,304.72
2019-04-25T04:29:35.371Z,304.84
2019-04-25T04:30:35.315Z,305.59
2019-04-25T04:31:35.350Z,304.06
2019-04-25T04:32:35.383Z,303.81
2019-04-25T04:33:35.474Z,304.56
2019-04-25T04:34:37.446Z,304.27
2019-04-25T04:35:36.334Z,304.39
2019-04-25T04:36:36.074Z,304.34
2019-04-25T04:37:35.246Z,311.20
2019-04-25T04:38:35.456Z,310.53
2019-04-25T04:39:35.266Z,310.60
2019-04-25T04:40:36.202Z,304.22
2019-04-25T04:41:35.236Z,310.05
2019-04-25T04:42:35.184Z,305.13
2019-04-25T04:43:35.990Z,311.83
2019-04-25T04:44:35.702Z,310.56
2019-04-25T04:45:35.166Z,310.36
2019-04-25T04:46:35.197Z,310.44
2019-04-25T04:47:35.124Z,315.04
2019-04-25T04:48:35.169Z,308.46
2019-04-25T04:49:35.156Z,307.21
2019-04-25T04:50:35.116Z,305.72
2019-04-25T04:51:35.106Z,305.16
2019-04-25T04:52:35.132Z,304.80
2019-04-25T04:53:35.863Z,307.00
2019-04-25T04:54:35.153Z,305.79
2019-04-25T04:55:35.774Z,305.39
2019-04-25T04:56:35.395Z,305.53
2019-04-25T04:57:36.214Z,306.10
2019-04-25T04:58:35.163Z,306.08
2019-04-25T04:59:35.048Z,305.34
2019-04-25T05:00:35.261Z,305.63
2019-04-25T05:01:35.014Z,311.77
2019-04-25T05:02:35.062Z,306.49
2019-04-25T05:03:34.964Z,311.92
2019-04-25T05:04:35.496Z,307.62
2019-04-25T05:05:34.963Z,309.80
2019-04-25T05:06:35.580Z,305.49
2019-04-25T05:07:34.988Z,311.02
2019-04-25T05:08:35.665Z,313.19
2019-04-25T05:09:34.925Z,310.85
2019-04-25T05:10:34.903Z,313.03
2019-04-25T05:11:34.939Z,312.10
2019-04-25T05:12:34.902Z,311.54
2019-04-25T05:13:34.857Z,311.79
2019-04-25T05:14:34.854Z,311.68
2019-04-25T05:15:34.891Z,304.39
2019-04-25T05:16:34.852Z,305.18
2019-04-25T05:17:35.821Z,305.67
2019-04-25T05:18:39.468Z,305.49
2019-04-25T05:19:35.810Z,305.77
2019-04-25T05:20:35.611Z,306.48
2019-04-25T05:21:34.835Z,306.19
2019-04-25T05:22:34.837Z,304.14
2019-04-25T05:23:34.944Z,305.79
2019-04-25T05:24:34.823Z,307.48
2019-04-25T05:25:34.747Z,304.46
2019-04-25T05:26:34.871Z,306.11
2019-04-25T05:27:46.333Z,311.20
2019-04-25T05:28:35.875Z,305.21
2019-04-25T05:29:34.698Z,306.03
2019-04-25T05:30:34.751Z,304.81
2019-04-25T05:31:34.708Z,303.31
2019-04-25T05:32:34.704Z,304.16
2019-04-25T05:33:34.680Z,304.20
2019-04-25T05:34:34.828Z,303.98
2019-04-25T05:35:35.088Z,304.36
2019-04-25T05:36:34.631Z,305.55
2019-04-25T05:37:34.803Z,311.47
2019-04-25T05:38:34.612Z,304.57
2019-04-25T05:39:34.615Z,304.09
2019-04-25T05:40:34.563Z,309.82
2019-04-25T05:41:36.004Z,311.33
2019-04-25T05:42:34.547Z,307.14
2019-04-25T05:43:34.524Z,305.25
2019-04-25T05:44:34.545Z,305.12
2019-04-25T05:45:34.522Z,306.42
2019-04-25T05:46:34.487Z,310.25
2019-04-25T05:47:34.523Z,306.64
2019-04-25T05:48:34.483Z,305.12
2019-04-25T05:49:34.462Z,303.72
2019-04-25T05:50:34.540Z,304.68
2019-04-25T05:51:34.450Z,305.56
2019-04-25T05:52:34.464Z,303.61
2019-04-25T05:53:34.439Z,306.64
2019-04-25T05:54:34.540Z,302.34
2019-04-25T05:55:34.434Z,304.54
2019-04-25T05:56:34.409Z,305.96
2019-04-25T05:57:45.580Z,304.05
2019-04-25T05:58:35.420Z,304.75
2019-04-25T05:59:34.368Z,305.07
2019-04-25T06:00:34.399Z,304.09
2019-04-25T06:01:35.797Z,303.83
2019-04-25T06:02:34.316Z,304.66
2019-04-25T06:03:34.362Z,306.45
2019-04-25T06:04:34.303Z,303.70
2019-04-25T06:05:34.304Z,304.25
2019-04-25T06:06:36.650Z,303.92
2019-04-25T06:07:34.287Z,304.11
2019-04-25T06:08:34.321Z,304.55
2019-04-25T06:09:35.766Z,302.86
2019-04-25T06:10:34.268Z,304.67
2019-04-25T06:11:34.264Z,310.06
2019-04-25T06:12:34.237Z,304.16
2019-04-25T06:13:34.233Z,305.03
2019-04-25T06:14:34.198Z,310.57
2019-04-25T06:15:34.176Z,309.28
2019-04-25T06:16:34.188Z,304.89
2019-04-25T06:17:34.365Z,309.81
2019-04-25T06:18:34.167Z,304.27
2019-04-25T06:19:34.185Z,305.91
2019-04-25T06:20:34.379Z,302.80
2019-04-25T06:21:34.222Z,308.61
2019-04-25T06:22:34.154Z,303.68
2019-04-25T06:23:34.157Z,304.18
2019-04-25T06:24:34.348Z,302.76
2019-04-25T06:25:38.966Z,305.30
2019-04-25T06:26:39.611Z,302.75
2019-04-25T06:27:35.273Z,308.40
2019-04-25T06:28:34.642Z,302.20
2019-04-25T06:29:34.810Z,303.65
2019-04-25T06:30:35.241Z,303.36
2019-04-25T06:31:34.218Z,304.58
2019-04-25T06:32:35.347Z,304.80
2019-04-25T06:33:34.068Z,308.19
2019-04-25T06:34:37.162Z,302.89
2019-04-25T06:35:35.506Z,301.00
2019-04-25T06:36:35.361Z,302.20
2019-04-25T06:37:35.055Z,307.88
2019-04-25T06:38:34.047Z,303.31
2019-04-25T06:39:35.758Z,307.60
2019-04-25T06:40:34.560Z,308.78
2019-04-25T06:41:35.669Z,308.17
2019-04-25T06:42:35.632Z,302.37
2019-04-25T06:43:34.279Z,309.28
2019-04-25T06:44:34.592Z,302.77
2019-04-25T06:45:34.461Z,308.52
2019-04-25T06:46:34.009Z,303.59
2019-04-25T06:47:34.676Z,308.35
2019-04-25T06:48:35.063Z,303.76
2019-04-25T06:49:37.106Z,309.01
2019-04-25T06:50:35.284Z,303.05
2019-04-25T06:51:34.348Z,303.39
2019-04-25T06:52:37.301Z,301.68
2019-04-25T06:53:34.611Z,304.48
2019-04-25T06:54:35.124Z,303.26
2019-04-25T06:55:34.611Z,307.73
2019-04-25T06:56:34.498Z,303.17
2019-04-25T06:57:34.166Z,309.57
2019-04-25T06:58:34.275Z,304.11
2019-04-25T06:59:34.501Z,308.59
2019-04-25T07:00:40.573Z,304.79
2019-04-25T07:01:34.910Z,309.27
2019-04-25T07:02:35.181Z,303.68
2019-04-25T07:03:36.623Z,307.84
2019-04-25T07:04:34.789Z,303.81
2019-04-25T07:05:39.978Z,309.07
2019-04-25T07:06:34.754Z,303.14
2019-04-25T07:07:35.202Z,302.76
2019-04-25T07:08:35.383Z,308.57
2019-04-25T07:09:34.940Z,308.05
2019-04-25T07:10:34.852Z,304.16
2019-04-25T07:11:34.849Z,302.05
2019-04-25T07:12:35.823Z,308.91
2019-04-25T07:13:35.566Z,306.32
2019-04-25T07:14:36.668Z,302.44
2019-04-25T07:15:34.139Z,307.80
2019-04-25T07:16:34.629Z,302.38
2019-04-25T07:17:34.995Z,306.22
2019-04-25T07:18:36.316Z,301.85
2019-04-25T07:19:34.371Z,306.01
2019-04-25T07:20:34.590Z,301.43
2019-04-25T07:21:34.656Z,307.30
2019-04-25T07:22:34.792Z,299.59
2019-04-25T07:23:34.615Z,306.31
2019-04-25T07:24:35.032Z,300.64
2019-04-25T07:25:35.385Z,300.47
2019-04-25T07:26:37.726Z,300.46
2019-04-25T07:27:37.863Z,307.28
2019-04-25T07:28:35.686Z,306.29
2019-04-25T07:29:33.747Z,309.53
2019-04-25T07:30:48.439Z,301.60
2019-04-25T07:31:34.782Z,306.75
2019-04-25T07:32:34.846Z,300.28
2019-04-25T07:33:34.741Z,301.27
2019-04-25T07:34:34.120Z,301.13
2019-04-25T07:35:34.449Z,300.66
2019-04-25T07:36:34.789Z,300.64
2019-04-25T07:37:34.916Z,300.28
2019-04-25T07:38:34.069Z,306.59
2019-04-25T07:39:34.378Z,306.54
2019-04-25T07:40:34.012Z,306.66
2019-04-25T07:41:34.490Z,306.17
2019-04-25T07:42:34.255Z,299.90
2019-04-25T07:43:34.133Z,300.59
2019-04-25T07:44:41.941Z,300.52
2019-04-25T07:45:35.095Z,300.36
2019-04-25T07:46:37.291Z,306.08
2019-04-25T07:47:35.127Z,300.42
2019-04-25T07:48:36.320Z,306.58
2019-04-25T07:49:34.551Z,306.99
2019-04-25T07:50:34.297Z,301.23
2019-04-25T07:51:34.586Z,301.68
2019-04-25T07:52:34.304Z,307.70
2019-04-25T07:53:34.617Z,302.44
2019-04-25T07:54:34.397Z,302.17
2019-04-25T07:55:35.871Z,303.26
2019-04-25T07:56:35.180Z,301.58
2019-04-25T07:57:34.436Z,301.20
2019-04-25T07:58:45.290Z,307.58
2019-04-25T07:59:35.993Z,302.67
2019-04-25T08:00:35.144Z,307.45
2019-04-25T08:01:33.501Z,301.18
2019-04-25T08:02:34.112Z,307.08
2019-04-25T08:03:34.413Z,302.26
2019-04-25T08:04:34.867Z,308.53
2019-04-25T08:05:35.122Z,302.33
2019-04-25T08:06:34.455Z,301.60
2019-04-25T08:07:33.952Z,302.65
2019-04-25T08:08:33.956Z,308.94
2019-04-25T08:09:35.266Z,302.40
2019-04-25T08:10:33.872Z,302.40
2019-04-25T08:11:34.144Z,308.06
2019-04-25T08:12:34.686Z,308.46
2019-04-25T08:13:34.264Z,302.12
2019-04-25T08:14:34.179Z,308.30
2019-04-25T08:15:33.901Z,302.44
2019-04-25T08:16:34.340Z,302.03
2019-04-25T08:17:35.804Z,302.99
2019-04-25T08:18:32.913Z,308.88
2019-04-25T08:19:33.521Z,303.79
2019-04-25T08:20:34.445Z,307.69
2019-04-25T08:21:34.431Z,303.06
2019-04-25T08:22:34.491Z,303.59
2019-04-25T08:23:36.684Z,303.88
2019-04-25T08:24:34.599Z,309.28
2019-04-25T08:25:33.789Z,303.02
2019-04-25T08:26:34.802Z,303.00
2019-04-25T08:27:34.162Z,302.60
2019-04-25T08:28:34.465Z,302.92
2019-04-25T08:29:36.318Z,302.67
2019-04-25T08:30:34.987Z,304.49
2019-04-25T08:31:34.825Z,302.89
2019-04-25T08:32:35.102Z,303.81
2019-04-25T08:33:34.273Z,302.50
2019-04-25T08:34:34.420Z,302.14
2019-04-25T08:35:34.214Z,302.48
2019-04-25T08:36:33.808Z,309.01
2019-04-25T08:37:34.476Z,303.46
2019-04-25T08:38:34.496Z,308.64
2019-04-25T08:39:34.411Z,303.01
2019-04-25T08:40:35.675Z,303.16
2019-04-25T08:41:34.806Z,303.44
2019-04-25T08:42:34.578Z,302.66
2019-04-25T08:43:34.812Z,303.36
2019-04-25T08:44:34.773Z,304.02
2019-04-25T08:45:33.549Z,309.75
2019-04-25T08:46:35.151Z,304.57
2019-04-25T08:47:34.708Z,305.09
2019-04-25T08:48:34.334Z,308.83
2019-04-25T08:49:34.501Z,303.18
2019-04-25T08:50:34.816Z,310.42
2019-04-25T08:51:34.793Z,304.19
2019-04-25T08:52:35.045Z,301.92
2019-04-25T08:53:34.483Z,308.72
2019-04-25T08:54:34.341Z,303.04
2019-04-25T08:55:34.390Z,303.37
2019-04-25T08:56:34.245Z,303.00
2019-04-25T08:57:33.876Z,302.02
2019-04-25T08:58:34.466Z,306.49
2019-04-25T08:59:39.696Z,302.03
2019-04-25T09:00:35.714Z,307.84
2019-04-25T09:01:34.611Z,303.19
2019-04-25T09:02:36.025Z,303.06
2019-04-25T09:03:34.023Z,304.00
2019-04-25T09:04:33.199Z,303.45
2019-04-25T09:05:33.368Z,302.83
2019-04-25T09:06:33.323Z,301.85
2019-04-25T09:07:34.909Z,303.76
2019-04-25T09:08:32.902Z,308.76
2019-04-25T09:09:35.025Z,304.14
2019-04-25T09:10:35.253Z,301.26
2019-04-25T09:11:33.409Z,303.15
2019-04-25T09:12:35.197Z,307.97
2019-04-25T09:13:33.053Z,308.23
2019-04-25T09:14:32.419Z,305.50
2019-04-25T09:15:33.005Z,301.93
2019-04-25T09:16:34.519Z,306.40
2019-04-25T09:17:33.187Z,307.22
2019-04-25T09:18:34.720Z,306.37
2019-04-25T09:19:33.591Z,307.09
2019-04-25T09:20:34.827Z,306.11
2019-04-25T09:21:34.155Z,300.63
2019-04-25T09:22:32.223Z,303.25
2019-04-25T09:23:34.406Z,301.92
2019-04-25T09:24:32.167Z,306.49
2019-04-25T09:25:34.544Z,299.59
2019-04-25T09:26:33.952Z,308.82
2019-04-25T09:27:34.328Z,301.14
2019-04-25T09:28:34.741Z,302.05
2019-04-25T09:29:34.384Z,302.44
2019-04-25T09:30:32.136Z,302.47
2019-04-25T09:31:34.542Z,301.07
2019-04-25T09:32:33.708Z,301.03
2019-04-25T09:33:32.101Z,301.14
2019-04-25T09:34:33.523Z,306.44
2019-04-25T09:35:33.500Z,300.43
2019-04-25T09:36:33.517Z,302.01
2019-04-25T09:37:33.484Z,299.48
2019-04-25T09:38:32.034Z,303.77
2019-04-25T09:39:33.612Z,302.02
2019-04-25T09:40:32.076Z,307.29
2019-04-25T09:41:33.501Z,301.82
2019-04-25T09:42:33.678Z,306.07
2019-04-25T09:43:33.408Z,299.61
2019-04-25T09:44:32.019Z,306.58
2019-04-25T09:45:33.473Z,306.51
2019-04-25T09:46:32.018Z,300.62
2019-04-25T09:47:33.436Z,304.23
2019-04-25T09:48:34.332Z,305.45
2019-04-25T09:49:34.976Z,306.50
2019-04-25T09:50:31.969Z,300.61
2019-04-25T09:51:33.463Z,300.36
2019-04-25T09:52:31.918Z,300.19
2019-04-25T09:53:31.902Z,301.10
2019-04-25T09:54:33.316Z,299.99
2019-04-25T09:55:31.838Z,300.51
2019-04-25T09:56:31.898Z,301.13
2019-04-25T09:57:33.389Z,298.96
2019-04-25T09:58:31.816Z,300.65
2019-04-25T09:59:33.197Z,299.34
2019-04-25T10:00:33.340Z,299.33
2019-04-25T10:01:31.810Z,297.39
2019-04-25T10:02:31.845Z,299.06
2019-04-25T10:03:33.270Z,298.72
2019-04-25T10:04:34.498Z,299.89
2019-04-25T10:05:33.929Z,296.88
2019-04-25T10:06:33.213Z,298.93
2019-04-25T10:07:31.747Z,298.56
2019-04-25T10:08:31.722Z,299.67
2019-04-25T10:09:31.776Z,299.23
2019-04-25T10:10:31.707Z,299.82
2019-04-25T10:11:33.423Z,299.23
2019-04-25T10:12:31.691Z,299.57
2019-04-25T10:13:31.718Z,298.37
2019-04-25T10:14:31.639Z,297.97
2019-04-25T10:15:31.633Z,300.60
2019-04-25T10:16:31.657Z,299.06
2019-04-25T10:17:31.619Z,299.56
2019-04-25T10:18:33.333Z,300.09
2019-04-25T10:19:31.624Z,299.74
2019-04-25T10:20:33.282Z,300.95
2019-04-25T10:21:31.587Z,299.77
2019-04-25T10:22:31.583Z,300.65
2019-04-25T10:23:31.582Z,301.07
2019-04-25T10:24:31.600Z,301.55
2019-04-25T10:25:33.136Z,301.69
2019-04-25T10:26:31.528Z,301.31
2019-04-25T10:27:31.533Z,301.36
2019-04-25T10:28:31.523Z,300.48
2019-04-25T10:29:41.601Z,301.37
2019-04-25T10:30:34.204Z,301.33
2019-04-25T10:31:41.275Z,301.64
2019-04-25T10:32:31.457Z,300.37
2019-04-25T10:33:31.420Z,299.04
2019-04-25T10:34:31.431Z,300.49
2019-04-25T10:35:34.226Z,300.12
2019-04-25T10:36:33.623Z,300.20
2019-04-25T10:37:31.380Z,299.93
2019-04-25T10:38:31.393Z,300.24
2019-04-25T10:39:31.383Z,298.56
2019-04-25T10:40:31.359Z,297.25
2019-04-25T10:41:31.373Z,299.09
2019-04-25T10:42:31.347Z,297.58
2019-04-25T10:43:31.329Z,298.46
2019-04-25T10:44:31.302Z,297.12
2019-04-25T10:45:31.317Z,297.55
2019-04-25T10:46:31.298Z,297.85
2019-04-25T10:47:31.297Z,296.47
2019-04-25T10:48:31.320Z,294.94
2019-04-25T10:49:31.244Z,296.96
2019-04-25T10:50:31.249Z,298.17
2019-04-25T10:51:31.243Z,296.82
2019-04-25T10:52:33.649Z,297.53
2019-04-25T10:53:31.310Z,296.46
2019-04-25T10:54:31.230Z,294.39
2019-04-25T10:55:31.201Z,295.51
2019-04-25T10:56:31.200Z,293.87
2019-04-25T10:57:31.187Z,295.56
2019-04-25T10:58:31.190Z,294.32
2019-04-25T10:59:32.707Z,295.23
2019-04-25T11:00:31.509Z,296.83
2019-04-25T11:01:31.158Z,297.48
2019-04-25T11:02:31.189Z,297.30
2019-04-25T11:03:31.156Z,296.91
2019-04-25T11:04:31.149Z,295.78
2019-04-25T11:05:31.605Z,296.78
2019-04-25T11:06:33.459Z,296.25
2019-04-25T11:07:31.712Z,297.94
2019-04-25T11:08:33.850Z,297.60
2019-04-25T11:09:31.378Z,298.57
2019-04-25T11:10:31.803Z,297.33
2019-04-25T11:11:31.043Z,297.00
2019-04-25T11:12:31.087Z,297.52
2019-04-25T11:13:31.249Z,300.40
2019-04-25T11:14:31.712Z,299.11
2019-04-25T11:15:33.989Z,298.17
2019-04-25T11:16:33.271Z,296.25
2019-04-25T11:17:33.889Z,296.82
2019-04-25T11:18:33.986Z,299.24
2019-04-25T11:19:30.951Z,296.55
2019-04-25T11:20:31.720Z,297.52
2019-04-25T11:21:30.966Z,298.46
2019-04-25T11:22:30.953Z,296.08
2019-04-25T11:23:30.975Z,298.58
2019-04-25T11:24:31.715Z,298.51
2019-04-25T11:25:30.889Z,295.88
2019-04-25T11:26:34.430Z,296.90
2019-04-25T11:27:31.036Z,296.92
2019-04-25T11:28:30.991Z,298.13
2019-04-25T11:29:31.013Z,297.53
2019-04-25T11:30:30.995Z,299.36
2019-04-25T11:31:30.886Z,299.63
2019-04-25T11:32:31.725Z,298.38
2019-04-25T11:33:33.456Z,297.31
2019-04-25T11:34:30.970Z,299.46
2019-04-25T11:35:30.819Z,298.12
2019-04-25T11:36:31.118Z,297.28
2019-04-25T11:37:30.848Z,297.44
2019-04-25T11:38:30.976Z,294.59
2019-04-25T11:39:30.915Z,299.10
2019-04-25T11:40:30.784Z,298.27
2019-04-25T11:41:30.761Z,297.70
2019-04-25T11:42:30.980Z,298.72
2019-04-25T11:43:30.705Z,299.63
2019-04-25T11:44:30.755Z,298.00
2019-04-25T11:45:30.743Z,296.55
2019-04-25T11:46:30.766Z,297.40
2019-04-25T11:47:31.444Z,296.08
2019-04-25T11:48:34.000Z,298.18
2019-04-25T11:49:30.952Z,297.27
2019-04-25T11:50:30.685Z,297.20
2019-04-25T11:51:30.989Z,298.34
2019-04-25T11:52:33.489Z,299.48
2019-04-25T11:53:33.759Z,298.36
2019-04-25T11:54:30.654Z,297.12
2019-04-25T11:55:30.706Z,296.79
2019-04-25T11:56:30.577Z,295.77
2019-04-25T11:57:30.572Z,295.59
2019-04-25T11:58:30.597Z,297.13
2019-04-25T11:59:30.555Z,297.47
2019-04-25T12:00:30.644Z,297.73
2019-04-25T12:01:30.517Z,296.60
2019-04-25T12:02:30.751Z,298.71
2019-04-25T12:03:30.604Z,297.93
2019-04-25T12:04:30.643Z,299.69
2019-04-25T12:05:30.485Z,296.91
2019-04-25T12:06:30.490Z,294.53
2019-04-25T12:07:30.472Z,296.63
2019-04-25T12:08:30.445Z,296.92
2019-04-25T12:09:33.311Z,296.62
2019-04-25T12:10:30.544Z,298.83
2019-04-25T12:11:30.515Z,297.32
2019-04-25T12:12:30.453Z,298.69
2019-04-25T12:13:30.378Z,300.24
2019-04-25T12:14:30.407Z,299.54
2019-04-25T12:15:30.375Z,301.46
2019-04-25T12:16:30.540Z,302.22
2019-04-25T12:17:30.363Z,298.94
2019-04-25T12:18:33.232Z,299.88
2019-04-25T12:19:35.826Z,299.45
2019-04-25T12:20:31.338Z,298.78
2019-04-25T12:21:30.345Z,299.21
2019-04-25T12:22:30.330Z,296.86
2019-04-25T12:23:30.390Z,299.24
2019-04-25T12:24:30.309Z,294.67
2019-04-25T12:25:30.259Z,299.06
2019-04-25T12:26:30.264Z,294.91
2019-04-25T12:27:30.462Z,296.64
2019-04-25T12:28:30.264Z,296.00